Time;durP1;ratioP1;P1;durP2;ratioP2;P2;SDS_P1;SDS_P2;PMS_P1;PMS_P2;Temp;Humidity;BMP_temperature;BMP_pressure;BME280_temperature;BME280_humidity;BME280_pressure;Samples;Min_cycle;Max_cycle;Signal;HPM_P1;HPM_P2
2021/11/17 02:28:00;;;;;;;19.13;14.43;;;5.90;99.90;;;;;;5071410;28;20186;-67
2021/11/17 02:30:48;;;;;;;25.50;15.93;;;5.80;99.90;;;;;;5075574;28;20526;-67
2021/11/17 02:33:16;;;;;;;18.40;14.47;;;5.80;99.90;;;;;;5076330;28;20590;-67
2021/11/17 02:35:59;;;;;;;20.30;15.40;;;5.80;99.90;;;;;;5091241;28;20242;-67
2021/11/17 02:38:46;;;;;;;18.50;13.93;;;5.90;99.90;;;;;;5075281;28;20528;-67
2021/11/17 02:41:31;;;;;;;18.73;14.50;;;5.90;99.90;;;;;;5034370;28;20183;-67
2021/11/17 02:44:21;;;;;;;21.07;13.90;;;5.90;99.90;;;;;;5060487;28;20235;-67
2021/11/17 02:47:22;;;;;;;18.13;14.07;;;5.90;99.90;;;;;;5092831;28;20166;-67
2021/11/17 02:49:54;;;;;;;18.73;13.47;;;5.90;99.90;;;;;;5067671;28;20286;-67
2021/11/17 02:52:22;;;;;;;17.20;14.47;;;6.00;99.90;;;;;;5072195;28;20257;-67
2021/11/17 02:55:06;;;;;;;19.60;14.93;;;6.00;99.90;;;;;;5063026;28;20193;-67
2021/11/17 02:57:51;;;;;;;21.97;14.30;;;6.00;99.90;;;;;;5092265;28;20176;-67
2021/11/17 03:00:33;;;;;;;22.47;15.30;;;6.10;99.90;;;;;;5060935;28;20265;-67
2021/11/17 03:03:36;;;;;;;19.27;14.50;;;6.10;99.90;;;;;;5055095;28;20212;-67
2021/11/17 03:06:20;;;;;;;22.57;13.97;;;6.00;99.90;;;;;;5054128;28;20289;-67
2021/11/17 03:09:14;;;;;;;21.80;15.37;;;6.10;99.90;;;;;;5054231;28;20643;-66
2021/11/17 03:11:52;;;;;;;20.63;14.87;;;6.10;99.90;;;;;;5041385;28;20239;-66
2021/11/17 03:14:42;;;;;;;20.67;14.50;;;6.10;99.90;;;;;;5073798;28;20290;-67
2021/11/17 03:17:23;;;;;;;21.50;14.20;;;6.10;99.90;;;;;;5036348;28;20183;-67
2021/11/17 03:19:52;;;;;;;24.43;14.43;;;6.10;99.90;;;;;;5051336;28;20182;-67
2021/11/17 03:22:30;;;;;;;22.27;15.87;;;6.10;99.90;;;;;;5088129;28;20177;-67
2021/11/17 03:25:05;;;;;;;21.90;14.47;;;6.20;99.90;;;;;;5072613;28;20296;-67
2021/11/17 03:27:56;;;;;;;23.03;14.37;;;6.20;99.90;;;;;;5051671;28;20170;-67
2021/11/17 03:30:37;;;;;;;25.30;15.07;;;6.20;99.90;;;;;;5058901;28;20165;-66
2021/11/17 03:33:18;;;;;;;19.67;13.23;;;6.20;99.90;;;;;;5073706;28;20169;-66
2021/11/17 03:36:19;;;;;;;21.63;14.80;;;6.20;99.90;;;;;;5076979;28;20198;-66
2021/11/17 03:39:03;;;;;;;20.50;13.20;;;6.20;99.90;;;;;;5070568;28;20226;-66
2021/11/17 03:41:34;;;;;;;16.87;13.37;;;6.10;99.90;;;;;;5070475;28;20193;-67
2021/11/17 03:44:30;;;;;;;16.50;12.93;;;6.20;99.90;;;;;;5071443;28;20212;-66
2021/11/17 03:47:10;;;;;;;19.80;13.97;;;6.20;99.90;;;;;;5042974;28;20166;-67
2021/11/17 03:50:08;;;;;;;18.10;12.80;;;6.20;99.90;;;;;;5091310;28;20165;-67
2021/11/17 03:53:15;;;;;;;14.23;12.33;;;6.30;99.90;;;;;;5076934;28;20214;-66
2021/11/17 03:55:52;;;;;;;19.50;13.70;;;6.30;99.90;;;;;;5053149;28;20218;-66
2021/11/17 03:58:21;;;;;;;17.17;13.47;;;6.30;99.90;;;;;;5086849;28;20204;-66
2021/11/17 04:01:10;;;;;;;18.80;13.33;;;6.40;99.90;;;;;;5084946;28;20171;-66
2021/11/17 04:04:00;;;;;;;18.90;13.40;;;6.40;99.90;;;;;;5053016;28;20233;-66
2021/11/17 04:06:29;;;;;;;16.27;12.37;;;6.40;99.90;;;;;;5082429;28;20258;-67
2021/11/17 04:09:04;;;;;;;20.10;13.00;;;6.50;99.90;;;;;;5091240;28;20177;-66
2021/11/17 04:11:37;;;;;;;15.17;13.57;;;6.50;99.90;;;;;;5080459;28;20177;-66
2021/11/17 04:14:11;;;;;;;15.67;13.07;;;6.50;99.90;;;;;;5071246;28;20192;-67
2021/11/17 04:16:43;;;;;;;14.53;12.07;;;6.50;99.90;;;;;;5082135;28;20264;-67
2021/11/17 04:19:19;;;;;;;16.20;14.40;;;6.50;99.90;;;;;;5056202;28;20177;-67
2021/11/17 04:22:02;;;;;;;15.73;13.53;;;6.60;99.90;;;;;;5061206;28;20186;-67
2021/11/17 04:24:53;;;;;;;16.63;13.77;;;6.60;99.90;;;;;;5053078;28;20292;-67
2021/11/17 04:27:27;;;;;;;16.13;12.70;;;6.60;99.90;;;;;;5068504;28;20227;-66
2021/11/17 04:30:13;;;;;;;15.47;12.83;;;6.60;99.90;;;;;;5090825;28;20169;-66
2021/11/17 04:32:53;;;;;;;17.23;13.67;;;6.60;99.90;;;;;;5034615;28;20527;-66
2021/11/17 04:35:40;;;;;;;17.73;13.07;;;6.60;99.90;;;;;;5050890;28;20191;-66
2021/11/17 04:38:29;;;;;;;15.03;13.00;;;6.60;99.90;;;;;;5034970;28;20178;-67
2021/11/17 04:40:54;;;;;;;14.27;12.70;;;6.50;99.90;;;;;;5055953;28;20675;-67
2021/11/17 04:43:35;;;;;;;15.17;12.73;;;6.50;99.90;;;;;;5093334;28;20172;-67
2021/11/17 04:46:22;;;;;;;16.43;12.17;;;6.50;99.90;;;;;;5091722;28;20179;-67
2021/11/17 04:49:02;;;;;;;14.33;12.07;;;6.40;99.90;;;;;;5074364;28;20174;-67
2021/11/17 04:52:21;;;;;;;13.57;12.10;;;6.40;99.90;;;;;;5080352;28;20177;-67
2021/11/17 04:54:56;;;;;;;19.23;13.07;;;6.40;99.90;;;;;;5012058;28;20223;-67
2021/11/17 04:57:40;;;;;;;14.77;13.20;;;6.40;99.90;;;;;;5061202;28;20189;-67
2021/11/17 05:00:20;;;;;;;15.83;13.70;;;6.40;99.90;;;;;;5056176;28;20601;-66
2021/11/17 05:03:41;;;;;;;15.00;12.13;;;6.40;99.90;;;;;;5072316;28;20188;-67
2021/11/17 05:06:16;;;;;;;17.23;13.30;;;6.50;99.90;;;;;;5037484;28;20195;-67
2021/11/17 05:09:05;;;;;;;15.67;12.40;;;6.50;99.90;;;;;;5074037;28;20177;-67
2021/11/17 05:11:42;;;;;;;12.57;11.27;;;6.60;99.90;;;;;;5062459;28;20161;-67
2021/11/17 05:14:14;;;;;;;18.60;14.10;;;6.70;99.90;;;;;;5077020;28;20201;-67
2021/11/17 05:16:48;;;;;;;15.33;12.53;;;6.60;99.90;;;;;;5057616;28;20170;-67
2021/11/17 05:19:29;;;;;;;15.20;12.97;;;6.60;99.90;;;;;;5074319;28;20177;-67
2021/11/17 05:21:54;;;;;;;14.20;12.73;;;6.70;99.90;;;;;;5093722;28;20181;-67
2021/11/17 05:24:29;;;;;;;17.60;13.03;;;6.70;99.90;;;;;;5093965;28;20258;-67
2021/11/17 05:27:13;;;;;;;14.03;12.57;;;6.70;99.90;;;;;;5056356;28;20173;-66
2021/11/17 05:29:51;;;;;;;13.70;12.23;;;6.70;99.90;;;;;;5055232;28;20658;-67
2021/11/17 05:32:35;;;;;;;14.67;12.73;;;6.70;99.90;;;;;;5053892;28;20172;-67
2021/11/17 05:35:40;;;;;;;14.97;12.83;;;6.70;99.90;;;;;;5057404;28;20321;-67
2021/11/17 05:38:26;;;;;;;18.50;12.50;;;6.70;99.90;;;;;;5051978;28;20284;-66
2021/11/17 05:41:07;;;;;;;17.13;11.93;;;6.70;99.90;;;;;;5082048;28;20274;-67
2021/11/17 05:43:51;;;;;;;14.03;12.20;;;6.70;99.90;;;;;;5093136;28;20201;-66
2021/11/17 05:46:55;;;;;;;16.00;12.10;;;6.70;99.90;;;;;;5063463;28;20536;-66
2021/11/17 05:49:29;;;;;;;16.47;13.30;;;6.60;99.90;;;;;;5048579;28;20204;-66
2021/11/17 05:52:10;;;;;;;16.63;13.57;;;6.60;99.90;;;;;;5089766;28;20165;-67
2021/11/17 05:54:45;;;;;;;15.57;13.67;;;6.50;99.90;;;;;;5074633;28;20273;-67
2021/11/17 05:57:19;;;;;;;13.87;12.33;;;6.60;99.90;;;;;;5081468;28;20173;-67
2021/11/17 05:59:56;;;;;;;14.87;13.30;;;6.60;99.90;;;;;;5091670;28;20545;-67
2021/11/17 06:02:28;;;;;;;18.63;13.70;;;6.60;99.90;;;;;;5073267;28;20415;-67
2021/11/17 06:04:54;;;;;;;15.20;12.37;;;6.60;99.90;;;;;;5074375;28;20297;-67
2021/11/17 06:07:19;;;;;;;20.00;13.53;;;6.70;99.90;;;;;;5093190;28;20697;-67
2021/11/17 06:09:44;;;;;;;16.03;12.97;;;6.70;99.90;;;;;;5092643;28;20534;-67
2021/11/17 06:12:13;;;;;;;15.80;13.27;;;6.70;99.90;;;;;;5072898;28;20170;-67
2021/11/17 06:14:44;;;;;;;14.47;12.43;;;6.60;99.90;;;;;;5072793;28;20652;-67
2021/11/17 06:17:24;;;;;;;14.00;12.30;;;6.60;99.90;;;;;;5092120;28;20515;-67
2021/11/17 06:19:53;;;;;;;17.50;13.43;;;6.60;99.90;;;;;;5092635;28;20234;-67
2021/11/17 06:22:22;;;;;;;16.67;13.30;;;6.50;99.90;;;;;;5072996;28;20197;-67
2021/11/17 06:24:51;;;;;;;15.70;12.50;;;6.50;99.90;;;;;;5069487;28;20209;-67
2021/11/17 06:27:21;;;;;;;12.97;10.93;;;6.50;99.90;;;;;;5092706;28;20646;-67
2021/11/17 06:29:48;;;;;;;13.17;11.57;;;6.40;99.90;;;;;;5073881;28;20531;-67
2021/11/17 06:32:16;;;;;;;13.00;11.57;;;6.40;99.90;;;;;;5072754;28;20162;-67
2021/11/17 06:34:49;;;;;;;14.43;13.03;;;6.40;99.90;;;;;;5089495;28;20671;-67
2021/11/17 06:37:17;;;;;;;14.60;12.33;;;6.30;99.90;;;;;;5092679;28;20181;-67
2021/11/17 06:39:46;;;;;;;14.07;12.10;;;6.30;99.90;;;;;;5086534;28;20177;-67
2021/11/17 06:42:15;;;;;;;17.20;13.87;;;6.30;99.90;;;;;;5092670;28;20251;-67
2021/11/17 06:44:42;;;;;;;14.97;12.97;;;6.20;99.90;;;;;;5076371;28;20209;-67
2021/11/17 06:47:08;;;;;;;15.50;13.57;;;6.30;99.90;;;;;;5072230;28;20197;-67
2021/11/17 06:49:34;;;;;;;15.03;13.30;;;6.30;99.90;;;;;;5085305;28;20169;-67
2021/11/17 06:51:59;;;;;;;16.50;14.23;;;6.30;99.90;;;;;;5092601;28;20227;-67
2021/11/17 06:54:25;;;;;;;17.50;14.47;;;6.30;99.90;;;;;;5085599;28;20201;-67
2021/11/17 06:56:51;;;;;;;16.30;13.07;;;6.40;99.90;;;;;;5092224;28;20612;-67
2021/11/17 06:59:17;;;;;;;17.17;13.30;;;6.40;99.90;;;;;;5056981;28;20272;-67
2021/11/17 07:01:42;;;;;;;18.10;13.23;;;6.40;99.90;;;;;;5074322;28;20596;-67
2021/11/17 07:04:08;;;;;;;15.13;13.63;;;6.50;99.90;;;;;;5070449;28;20214;-67
2021/11/17 07:06:34;;;;;;;16.10;13.43;;;6.50;99.90;;;;;;5064894;28;20553;-67
2021/11/17 07:09:00;;;;;;;15.10;12.73;;;6.50;99.90;;;;;;5083186;28;20177;-67
2021/11/17 07:11:26;;;;;;;19.40;15.07;;;6.50;99.90;;;;;;5089384;28;20627;-67
2021/11/17 07:13:52;;;;;;;16.03;14.27;;;6.60;99.90;;;;;;5059661;28;20206;-67
2021/11/17 07:16:18;;;;;;;15.40;13.40;;;6.60;99.90;;;;;;5071811;28;20177;-68
2021/11/17 07:18:44;;;;;;;13.83;12.43;;;6.70;99.90;;;;;;5071449;28;20178;-67
2021/11/17 07:21:10;;;;;;;16.83;12.93;;;6.70;99.90;;;;;;5071547;28;20177;-67
2021/11/17 07:23:36;;;;;;;15.40;12.60;;;6.80;99.90;;;;;;5071384;28;20596;-68
2021/11/17 07:26:04;;;;;;;16.87;12.97;;;6.90;99.90;;;;;;5071413;28;20630;-68
2021/11/17 07:28:30;;;;;;;18.00;13.67;;;6.90;99.90;;;;;;5071758;28;20184;-67
2021/11/17 07:30:56;;;;;;;14.37;12.93;;;6.90;99.90;;;;;;5070988;28;20173;-67
2021/11/17 07:33:21;;;;;;;15.47;12.30;;;6.90;99.90;;;;;;5089079;28;20182;-67
2021/11/17 07:35:50;;;;;;;15.23;12.13;;;6.90;99.90;;;;;;5091452;28;20208;-67
2021/11/17 07:38:20;;;;;;;15.53;11.70;;;6.80;99.90;;;;;;5060266;28;20174;-67
2021/11/17 07:40:48;;;;;;;17.17;12.63;;;6.80;99.90;;;;;;5071041;28;20646;-68
2021/11/17 07:43:18;;;;;;;14.77;12.70;;;6.80;99.90;;;;;;5069984;28;20197;-67
2021/11/17 07:45:44;;;;;;;17.53;13.10;;;6.80;99.90;;;;;;5089430;28;20197;-68
2021/11/17 07:48:13;;;;;;;13.97;12.60;;;6.90;99.90;;;;;;5091412;28;20161;-67
2021/11/17 07:50:40;;;;;;;13.50;10.97;;;7.00;99.90;;;;;;5086965;28;20173;-67
2021/11/17 07:53:06;;;;;;;15.90;11.67;;;7.10;99.90;;;;;;5088022;28;20180;-67
2021/11/17 07:55:33;;;;;;;14.83;11.77;;;7.20;99.90;;;;;;5091192;28;20256;-67
2021/11/17 07:57:59;;;;;;;13.60;11.80;;;7.30;99.90;;;;;;5075557;28;20181;-67
2021/11/17 08:00:30;;;;;;;14.27;11.43;;;7.30;99.90;;;;;;5052909;28;20695;-67
2021/11/17 08:02:56;;;;;;;12.27;11.03;;;7.40;99.90;;;;;;5085235;28;20197;-67
2021/11/17 08:05:24;;;;;;;12.20;11.07;;;7.40;99.90;;;;;;5090187;28;20231;-67
2021/11/17 08:07:51;;;;;;;14.33;12.43;;;7.40;99.90;;;;;;5078017;28;20173;-67
2021/11/17 08:10:21;;;;;;;12.40;11.10;;;7.50;99.90;;;;;;5070992;28;20261;-67
2021/11/17 08:12:47;;;;;;;13.93;10.87;;;7.50;99.90;;;;;;5064627;28;20173;-67
2021/11/17 08:15:14;;;;;;;12.60;11.17;;;7.50;99.90;;;;;;5091129;28;20231;-67
2021/11/17 08:17:40;;;;;;;12.60;10.40;;;7.60;99.90;;;;;;5082140;28;20180;-67
2021/11/17 08:20:12;;;;;;;12.03;10.70;;;7.60;99.90;;;;;;5074670;28;20231;-67
2021/11/17 08:22:43;;;;;;;11.90;10.70;;;7.70;99.90;;;;;;5083940;28;20177;-67
2021/11/17 08:25:09;;;;;;;15.57;12.00;;;7.70;99.90;;;;;;5094977;28;20682;-67
2021/11/17 08:27:36;;;;;;;13.13;11.93;;;7.80;99.90;;;;;;5086646;28;20185;-67
2021/11/17 08:30:02;;;;;;;12.63;11.47;;;7.90;99.90;;;;;;5074514;28;20174;-67
2021/11/17 08:32:28;;;;;;;11.67;10.57;;;7.90;99.90;;;;;;5074666;28;20174;-67
2021/11/17 08:34:53;;;;;;;13.13;11.73;;;7.90;99.90;;;;;;5074393;28;20725;-67
2021/11/17 08:37:20;;;;;;;13.43;10.30;;;7.90;99.90;;;;;;5078681;28;20314;-67
2021/11/17 08:39:48;;;;;;;11.43;10.43;;;8.00;99.90;;;;;;5094601;28;20180;-67
2021/11/17 08:42:15;;;;;;;12.50;11.27;;;7.90;99.90;;;;;;5091490;28;20214;-67
2021/11/17 08:44:41;;;;;;;11.63;10.53;;;7.90;99.90;;;;;;5074472;28;20655;-67
2021/11/17 08:47:11;;;;;;;11.50;10.27;;;7.90;99.90;;;;;;5075711;28;20197;-67
2021/11/17 08:49:38;;;;;;;11.47;10.30;;;7.90;99.90;;;;;;5094204;28;20165;-67
2021/11/17 08:52:06;;;;;;;11.37;9.77;;;7.90;99.90;;;;;;5094108;28;20173;-68
2021/11/17 08:54:32;;;;;;;11.67;10.47;;;7.90;99.90;;;;;;5074195;28;20328;-67
2021/11/17 08:56:59;;;;;;;14.23;10.33;;;7.90;99.90;;;;;;5074153;28;20261;-67
2021/11/17 08:59:25;;;;;;;11.77;10.57;;;7.90;99.90;;;;;;5074666;28;20603;-67
2021/11/17 09:01:55;;;;;;;12.67;9.83;;;7.90;99.90;;;;;;5094312;28;20174;-67
2021/11/17 09:04:21;;;;;;;10.80;9.70;;;7.80;99.90;;;;;;5075845;28;20286;-67
2021/11/17 09:06:46;;;;;;;11.00;9.90;;;7.80;99.90;;;;;;5073994;28;20598;-67
2021/11/17 09:09:12;;;;;;;11.73;10.13;;;7.80;99.90;;;;;;5089577;28;20216;-67
2021/11/17 09:11:38;;;;;;;10.50;9.37;;;7.80;99.90;;;;;;5093949;28;20512;-67
2021/11/17 09:14:05;;;;;;;11.97;10.50;;;7.70;99.90;;;;;;5092328;28;20205;-67
2021/11/17 09:16:32;;;;;;;12.70;10.10;;;7.80;99.90;;;;;;5094488;28;20165;-67
2021/11/17 09:18:59;;;;;;;11.53;9.87;;;7.80;99.90;;;;;;5078898;28;20178;-67
2021/11/17 09:21:26;;;;;;;10.23;9.17;;;7.80;99.90;;;;;;5055709;28;20170;-67
2021/11/17 09:23:51;;;;;;;10.60;9.60;;;7.90;99.90;;;;;;5086296;28;20293;-67
2021/11/17 09:26:22;;;;;;;10.83;9.77;;;7.90;99.90;;;;;;5075793;28;20174;-67
2021/11/17 09:28:48;;;;;;;11.43;10.33;;;7.90;99.90;;;;;;5080707;28;20534;-67
2021/11/17 09:31:15;;;;;;;12.07;10.60;;;8.00;99.90;;;;;;5073359;28;20245;-67
2021/11/17 09:33:42;;;;;;;11.57;10.37;;;8.00;99.90;;;;;;5083384;28;20284;-67
2021/11/17 09:36:09;;;;;;;11.87;10.60;;;8.00;99.90;;;;;;5093685;28;20261;-67
2021/11/17 09:38:35;;;;;;;10.90;10.00;;;8.10;99.90;;;;;;5084687;28;20542;-67
2021/11/17 09:41:07;;;;;;;12.00;9.93;;;8.10;99.90;;;;;;5073148;28;20254;-67
2021/11/17 09:43:38;;;;;;;11.90;10.70;;;8.20;99.90;;;;;;5080466;28;20280;-67
2021/11/17 09:46:04;;;;;;;10.83;9.83;;;8.10;99.90;;;;;;5093663;28;20169;-67
2021/11/17 09:48:38;;;;;;;11.20;10.10;;;8.20;99.90;;;;;;5086655;28;20225;-67
2021/11/17 09:51:12;;;;;;;11.60;10.40;;;8.20;99.90;;;;;;5055059;28;20227;-67
2021/11/17 09:53:49;;;;;;;11.53;10.53;;;8.20;99.90;;;;;;5079500;28;20205;-67
2021/11/17 09:56:40;;;;;;;11.67;10.60;;;8.20;99.90;;;;;;5093749;28;20174;-67
2021/11/17 09:59:13;;;;;;;11.53;10.37;;;8.20;99.90;;;;;;5082165;28;20190;-67
2021/11/17 10:02:10;;;;;;;11.10;10.10;;;8.30;99.90;;;;;;5073070;28;20171;-67
2021/11/17 10:04:43;;;;;;;9.90;9.10;;;8.40;99.90;;;;;;5064199;28;20209;-67
2021/11/17 10:11:11;;;;;;;10.00;9.00;;;8.50;99.90;;;;;;5073064;28;20285;-69
2021/11/17 10:14:10;;;;;;;10.47;9.40;;;8.50;99.90;;;;;;5073393;28;20252;-69
2021/11/17 10:16:37;;;;;;;12.17;9.53;;;8.50;99.90;;;;;;5047200;28;20185;-68
2021/11/17 10:19:26;;;;;;;11.70;10.50;;;8.50;99.90;;;;;;5057189;28;20178;-68
2021/11/17 10:22:05;;;;;;;11.30;10.17;;;8.60;99.90;;;;;;5081551;28;20192;-68
2021/11/17 10:24:45;;;;;;;11.77;10.67;;;8.70;99.90;;;;;;5087952;28;20216;-68
2021/11/17 10:27:27;;;;;;;11.20;10.10;;;8.70;99.90;;;;;;5061159;28;20553;-68
2021/11/17 10:30:26;;;;;;;12.00;10.50;;;8.80;99.90;;;;;;5085312;28;20539;-67
2021/11/17 10:33:25;;;;;;;11.60;10.43;;;8.80;99.90;;;;;;5066809;28;20646;-66
2021/11/17 10:36:05;;;;;;;10.33;9.40;;;8.80;99.90;;;;;;5086223;28;20208;-68
2021/11/17 10:38:39;;;;;;;11.83;10.47;;;8.90;99.90;;;;;;5092733;28;20169;-67
2021/11/17 10:41:20;;;;;;;11.87;10.37;;;8.90;99.90;;;;;;5076152;28;20269;-66
2021/11/17 10:44:11;;;;;;;13.47;12.03;;;9.00;99.90;;;;;;5071889;28;20200;-67
2021/11/17 10:46:51;;;;;;;13.30;12.00;;;9.00;99.90;;;;;;5087405;28;20194;-67
2021/11/17 10:49:24;;;;;;;16.07;11.80;;;9.00;99.90;;;;;;5073922;28;20184;-67
2021/11/17 10:52:00;;;;;;;11.87;10.77;;;9.10;99.90;;;;;;5089837;28;20192;-67
2021/11/17 10:54:29;;;;;;;13.07;11.53;;;9.20;99.90;;;;;;5091909;28;20193;-67
2021/11/17 10:57:11;;;;;;;13.37;11.77;;;9.20;99.90;;;;;;5053965;28;20181;-67
2021/11/17 10:59:38;;;;;;;12.47;11.17;;;9.20;99.90;;;;;;5071844;28;20260;-67
2021/11/17 11:02:05;;;;;;;12.30;11.03;;;9.20;99.90;;;;;;5092140;28;20166;-67
2021/11/17 11:04:37;;;;;;;14.23;12.73;;;9.30;99.90;;;;;;5091801;28;20342;-67
2021/11/17 11:07:05;;;;;;;14.00;12.37;;;9.20;99.90;;;;;;5091871;28;20587;-67
2021/11/17 11:09:38;;;;;;;16.37;12.23;;;9.20;99.90;;;;;;5073709;28;20709;-67
2021/11/17 11:12:04;;;;;;;15.60;12.70;;;9.30;99.90;;;;;;5054225;28;20227;-67
2021/11/17 11:14:36;;;;;;;17.37;12.30;;;9.30;99.90;;;;;;5071596;28;20187;-67
2021/11/17 11:17:25;;;;;;;16.70;12.80;;;9.30;99.90;;;;;;5090150;28;20181;-66
2021/11/17 11:20:12;;;;;;;15.03;13.47;;;9.40;99.90;;;;;;5073263;28;20295;-67
2021/11/17 11:22:58;;;;;;;17.70;13.63;;;9.40;99.90;;;;;;5033999;28;20175;-67
2021/11/17 11:25:52;;;;;;;15.97;12.77;;;9.40;99.90;;;;;;5059225;28;20310;-68
2021/11/17 11:28:20;;;;;;;14.80;12.37;;;9.40;99.90;;;;;;5084565;28;20225;-66
2021/11/17 11:31:03;;;;;;;13.93;12.23;;;9.40;99.90;;;;;;5085231;28;20170;-67
2021/11/17 11:33:51;;;;;;;20.70;11.93;;;9.40;99.90;;;;;;5071886;28;20233;-68
2021/11/17 11:36:22;;;;;;;20.53;13.67;;;9.50;99.90;;;;;;5063117;28;20180;-67
2021/11/17 11:38:51;;;;;;;17.63;13.87;;;9.40;99.90;;;;;;5091768;28;20169;-67
2021/11/17 11:41:38;;;;;;;16.30;13.20;;;9.40;99.90;;;;;;5067744;28;20200;-68
2021/11/17 11:44:19;;;;;;;16.93;14.60;;;9.50;99.90;;;;;;5071078;28;20259;-68
2021/11/17 11:46:55;;;;;;;18.53;13.90;;;9.60;99.90;;;;;;5071106;28;20170;-67
2021/11/17 11:49:36;;;;;;;21.27;14.50;;;9.50;99.90;;;;;;5071136;28;20203;-67
2021/11/17 11:52:10;;;;;;;16.20;12.37;;;9.50;99.90;;;;;;5073060;28;20256;-68
2021/11/17 11:54:54;;;;;;;19.80;13.10;;;9.50;99.90;;;;;;5091973;28;20197;-67
2021/11/17 11:57:25;;;;;;;20.70;12.53;;;9.50;99.90;;;;;;5098258;28;20215;-67
2021/11/17 12:00:02;;;;;;;19.43;13.07;;;9.60;99.90;;;;;;5082012;28;20647;-67
2021/11/17 12:02:35;;;;;;;17.53;12.77;;;9.70;99.90;;;;;;5078152;28;20182;-66
2021/11/17 12:05:05;;;;;;;19.30;13.60;;;9.80;99.90;;;;;;5093602;28;20287;-66
2021/11/17 12:07:57;;;;;;;19.43;12.87;;;9.80;99.90;;;;;;5087588;28;20182;-66
2021/11/17 12:10:34;;;;;;;14.97;12.40;;;9.70;99.90;;;;;;5077428;28;20173;-66
2021/11/17 12:13:11;;;;;;;17.67;12.83;;;9.70;99.90;;;;;;5091118;28;20197;-66
2021/11/17 12:15:39;;;;;;;15.97;12.40;;;9.70;99.90;;;;;;5097616;28;20227;-66
2021/11/17 12:18:18;;;;;;;17.33;13.47;;;9.70;99.90;;;;;;5066171;28;20185;-66
2021/11/17 12:21:09;;;;;;;17.70;13.17;;;9.80;99.90;;;;;;5059517;28;20207;-66
2021/11/17 12:23:39;;;;;;;19.23;14.43;;;9.80;99.90;;;;;;5066980;28;20185;-66
2021/11/17 12:26:16;;;;;;;22.27;14.07;;;9.80;99.90;;;;;;5079625;28;20211;-66
2021/11/17 12:29:04;;;;;;;32.03;18.67;;;9.80;99.90;;;;;;5079597;28;20188;-66
2021/11/17 12:32:06;;;;;;;24.13;16.57;;;9.70;99.90;;;;;;5076824;28;20186;-66
2021/11/17 12:34:44;;;;;;;22.47;14.47;;;9.80;99.90;;;;;;5077724;28;20185;-66
2021/11/17 12:37:25;;;;;;;17.43;13.57;;;9.80;99.90;;;;;;5081093;28;20260;-66
2021/11/17 12:40:02;;;;;;;21.57;13.60;;;9.80;99.90;;;;;;5097444;28;20173;-66
2021/11/17 12:42:46;;;;;;;19.37;13.73;;;9.90;99.90;;;;;;5096240;28;20169;-66
2021/11/17 12:45:23;;;;;;;23.23;14.53;;;9.90;99.90;;;;;;5097700;28;20231;-66
2021/11/17 12:48:14;;;;;;;22.33;13.27;;;9.90;99.90;;;;;;5089153;28;20178;-66
2021/11/17 12:50:48;;;;;;;22.13;12.77;;;9.90;99.90;;;;;;5079405;28;20185;-66
2021/11/17 12:53:20;;;;;;;20.03;14.13;;;9.70;99.90;;;;;;5097686;28;20161;-65
2021/11/17 12:55:52;;;;;;;19.83;13.43;;;9.70;99.90;;;;;;5095663;28;20201;-65
2021/11/17 12:58:33;;;;;;;21.93;13.73;;;9.70;99.90;;;;;;5097699;28;20212;-66
2021/11/17 13:01:29;;;;;;;19.53;13.43;;;9.70;99.90;;;;;;5089365;28;20181;-66
2021/11/17 13:04:06;;;;;;;21.47;15.57;;;9.60;99.90;;;;;;5095658;28;20603;-66
2021/11/17 13:06:40;;;;;;;19.70;14.07;;;9.70;99.90;;;;;;5075109;28;20170;-66
2021/11/17 13:09:16;;;;;;;23.33;15.07;;;9.60;99.90;;;;;;5074239;28;20178;-66
2021/11/17 13:12:02;;;;;;;17.90;13.77;;;9.70;99.90;;;;;;5073912;28;20197;-66
2021/11/17 13:14:31;;;;;;;22.97;15.07;;;9.60;99.90;;;;;;5081952;28;20209;-66
2021/11/17 13:17:16;;;;;;;28.77;16.87;;;9.60;99.90;;;;;;5094190;28;20204;-66
2021/11/17 13:19:46;;;;;;;24.17;13.20;;;9.60;99.90;;;;;;5084038;28;20275;-66
2021/11/17 13:22:30;;;;;;;24.10;15.50;;;9.60;99.90;;;;;;5075850;28;20192;-66
2021/11/17 13:25:33;;;;;;;26.30;14.70;;;9.60;99.90;;;;;;5093801;28;20296;-65
2021/11/17 13:28:06;;;;;;;19.57;14.33;;;9.60;99.90;;;;;;5085675;28;20780;-65
2021/11/17 13:30:45;;;;;;;28.93;16.10;;;9.50;99.90;;;;;;5074534;28;20189;-65
2021/11/17 13:33:23;;;;;;;22.10;14.87;;;9.50;99.90;;;;;;5082977;28;20177;-66
2021/11/17 13:36:10;;;;;;;30.67;15.63;;;9.50;99.90;;;;;;5074367;28;20428;-66
2021/11/17 13:38:56;;;;;;;25.53;16.57;;;9.50;99.90;;;;;;5080975;28;20182;-66
2021/11/17 13:41:22;;;;;;;18.57;13.93;;;9.50;99.90;;;;;;5055059;28;20178;-66
2021/11/17 13:43:48;;;;;;;35.80;16.90;;;9.50;99.90;;;;;;5086101;28;20301;-66
2021/11/17 13:46:16;;;;;;;25.13;16.30;;;9.50;99.90;;;;;;5093856;28;20244;-66
2021/11/17 13:48:43;;;;;;;22.07;15.37;;;9.50;99.90;;;;;;5091821;28;20279;-66
2021/11/17 13:51:10;;;;;;;39.97;19.53;;;9.50;99.90;;;;;;5074981;28;20174;-66
2021/11/17 13:53:36;;;;;;;50.50;24.50;;;9.50;99.90;;;;;;5081944;28;20186;-66
2021/11/17 13:56:26;;;;;;;36.60;19.53;;;9.50;99.90;;;;;;5073120;28;20707;-66
2021/11/17 13:58:54;;;;;;;26.20;17.03;;;9.50;99.90;;;;;;5084974;28;20178;-66
2021/11/17 14:01:20;;;;;;;29.13;18.93;;;9.50;99.90;;;;;;5093214;28;20162;-66
2021/11/17 14:03:46;;;;;;;28.47;16.20;;;9.50;99.90;;;;;;5063783;28;20202;-66
2021/11/17 14:06:15;;;;;;;32.97;16.77;;;9.50;99.90;;;;;;5073180;28;20213;-66
2021/11/17 14:08:41;;;;;;;28.20;15.80;;;9.60;99.90;;;;;;5081629;28;20650;-66
2021/11/17 14:11:07;;;;;;;32.43;17.63;;;9.60;99.90;;;;;;5092650;28;20256;-66
2021/11/17 14:13:33;;;;;;;28.83;16.67;;;9.60;99.90;;;;;;5084636;28;20707;-66
2021/11/17 14:16:00;;;;;;;27.30;16.57;;;9.70;99.90;;;;;;5072446;28;20227;-66
2021/11/17 14:18:28;;;;;;;27.23;15.77;;;9.70;99.90;;;;;;5079075;28;20216;-66
2021/11/17 14:20:55;;;;;;;26.27;16.47;;;9.60;99.90;;;;;;5092634;28;20176;-67
2021/11/17 14:23:21;;;;;;;27.50;15.60;;;9.60;99.90;;;;;;5087318;28;20181;-66
2021/11/17 14:25:46;;;;;;;25.73;15.93;;;9.70;99.90;;;;;;5054250;28;20214;-67
2021/11/17 14:28:34;;;;;;;29.23;15.67;;;9.60;99.90;;;;;;5075765;28;20247;-66
2021/11/17 14:31:41;;;;;;;26.10;15.87;;;9.60;99.90;;;;;;5092548;28;20184;-66
2021/11/17 14:34:07;;;;;;;23.87;15.07;;;9.60;99.90;;;;;;5082293;28;20236;-66
2021/11/17 14:36:49;;;;;;;33.67;17.10;;;9.60;99.90;;;;;;5072347;28;20185;-66
2021/11/17 14:39:17;;;;;;;32.50;17.50;;;9.60;99.90;;;;;;5082934;28;20204;-66
2021/11/17 14:41:43;;;;;;;27.37;16.37;;;9.60;99.90;;;;;;5073874;28;20646;-66
2021/11/17 14:44:09;;;;;;;29.70;17.43;;;9.60;99.90;;;;;;5082644;28;20271;-66
2021/11/17 14:46:35;;;;;;;32.03;17.07;;;9.60;99.90;;;;;;5072432;28;20181;-66
2021/11/17 14:49:01;;;;;;;35.37;17.70;;;9.60;99.90;;;;;;5079678;28;20174;-66
2021/11/17 14:51:27;;;;;;;31.07;18.60;;;9.60;99.90;;;;;;5074245;28;20173;-66
2021/11/17 14:53:53;;;;;;;36.30;20.03;;;9.70;99.90;;;;;;5080147;28;20205;-66
2021/11/17 14:56:21;;;;;;;36.93;22.53;;;9.60;99.90;;;;;;5071830;28;20182;-66
2021/11/17 14:58:47;;;;;;;37.93;18.97;;;9.60;99.90;;;;;;5082079;28;20205;-66
2021/11/17 15:01:18;;;;;;;42.77;21.50;;;9.60;99.90;;;;;;5092062;28;20177;-66
2021/11/17 15:03:45;;;;;;;48.47;24.40;;;9.60;99.90;;;;;;5081686;28;20174;-66
2021/11/17 15:06:11;;;;;;;33.43;18.53;;;9.60;99.90;;;;;;5071864;28;20181;-66
2021/11/17 15:08:37;;;;;;;32.17;18.07;;;9.50;99.90;;;;;;5085610;28;20553;-66
2021/11/17 15:11:03;;;;;;;34.67;19.67;;;9.50;99.90;;;;;;5073611;28;20184;-66
2021/11/17 15:13:29;;;;;;;36.47;18.07;;;9.50;99.90;;;;;;5079663;28;20174;-66
2021/11/17 15:15:56;;;;;;;29.63;18.73;;;9.40;99.90;;;;;;5071025;28;20206;-66
2021/11/17 15:18:23;;;;;;;37.43;19.53;;;9.40;99.90;;;;;;5081990;28;20234;-66
2021/11/17 15:20:49;;;;;;;34.97;18.83;;;9.50;99.90;;;;;;5091416;28;20583;-66
2021/11/17 15:23:17;;;;;;;32.07;19.27;;;9.50;99.90;;;;;;5072062;28;20177;-66
2021/11/17 15:25:45;;;;;;;32.07;18.17;;;9.50;99.90;;;;;;5091213;28;20222;-66
2021/11/17 15:28:15;;;;;;;29.10;17.90;;;9.50;99.90;;;;;;5082959;28;20185;-66
2021/11/17 15:30:51;;;;;;;34.60;18.83;;;9.50;99.90;;;;;;5070990;28;20257;-66
2021/11/17 15:33:17;;;;;;;33.03;18.50;;;9.50;99.90;;;;;;5061606;28;20184;-66
2021/11/17 15:35:43;;;;;;;36.90;18.43;;;9.50;99.90;;;;;;5091062;28;20201;-66
2021/11/17 15:38:09;;;;;;;38.43;21.67;;;9.40;99.90;;;;;;5084786;28;20544;-66
2021/11/17 15:40:40;;;;;;;35.10;20.90;;;9.50;99.90;;;;;;5071131;28;20261;-66
2021/11/17 15:43:05;;;;;;;27.97;18.83;;;9.40;99.90;;;;;;5076720;28;20197;-66
2021/11/17 15:45:32;;;;;;;31.67;18.93;;;9.40;99.90;;;;;;5090632;28;20212;-66
2021/11/17 15:47:58;;;;;;;36.93;20.70;;;9.40;99.90;;;;;;5089554;28;20184;-66